Time;durP1;ratioP1;P1;durP2;ratioP2;P2;SDS_P1;SDS_P2;PMS_P1;PMS_P2;Temp;Humidity;BMP_temperature;BMP_pressure;BME280_temperature;BME280_humidity;BME280_pressure;Samples;Min_cycle;Max_cycle;Signal;HPM_P1;HPM_P2
2021/12/25 00:01:13;;;;;;;;;4.67;4.00;;;;;21.31;45.02;99673.46;109341;1280;21234;-80
2021/12/25 00:03:39;;;;;;;;;4.00;3.00;;;;;21.32;44.91;99686.08;109349;1279;24139;-80
2021/12/25 00:06:05;;;;;;;;;2.00;2.00;;;;;21.31;45.00;99690.56;109344;1280;20628;-80
2021/12/25 00:08:31;;;;;;;;;4.00;4.00;;;;;21.30;44.95;99696.48;109358;1279;19308;-79
2021/12/25 00:10:57;;;;;;;;;4.00;4.00;;;;;21.29;44.75;99701.34;109328;1279;20913;-80
2021/12/25 00:13:23;;;;;;;;;4.67;4.00;;;;;21.30;44.92;99709.98;109378;1279;20872;-80
2021/12/25 00:15:49;;;;;;;;;4.00;4.00;;;;;21.30;44.80;99719.30;109330;1279;21543;-79
2021/12/25 00:18:15;;;;;;;;;3.00;3.00;;;;;21.30;44.91;99723.99;109151;1272;207492;-78
2021/12/25 00:20:40;;;;;;;;;4.00;4.00;;;;;21.29;44.80;99730.18;109320;1279;19204;-78
2021/12/25 00:23:08;;;;;;;;;3.00;2.00;;;;;21.28;44.86;99734.67;109345;1279;19466;-78
2021/12/25 00:25:36;;;;;;;;;4.00;4.00;;;;;21.30;44.78;99742.13;109393;1279;22037;-78
2021/12/25 00:28:16;;;;;;;;;4.67;4.00;;;;;21.30;44.88;99743.55;109285;1280;22899;-78
2021/12/25 00:30:48;;;;;;;;;5.00;4.00;;;;;21.28;44.71;99752.42;109319;1279;21201;-80
2021/12/25 00:33:31;;;;;;;;;4.00;4.00;;;;;21.28;44.68;99756.45;109290;1279;21819;-79
2021/12/25 00:35:57;;;;;;;;;2.00;2.00;;;;;21.29;44.64;99756.78;109286;1279;21822;-79
2021/12/25 00:38:23;;;;;;;;;4.00;4.00;;;;;21.28;44.65;99760.30;109343;1279;19308;-75
2021/12/25 00:40:49;;;;;;;;;4.00;4.00;;;;;21.29;44.54;99764.57;109298;1279;22709;-79
2021/12/25 00:43:15;;;;;;;;;4.00;4.00;;;;;21.29;44.45;99773.50;109301;1280;20432;-78
2021/12/25 00:45:41;;;;;;;;;4.00;4.00;;;;;21.28;44.53;99773.02;109366;1279;19311;-78
2021/12/25 00:48:06;;;;;;;;;2.00;2.00;;;;;21.29;44.48;99775.09;109316;1279;24036;-78
2021/12/25 00:50:32;;;;;;;;;4.00;4.00;;;;;21.28;44.48;99774.65;109328;1280;20837;-77
2021/12/25 00:52:58;;;;;;;;;3.00;3.00;;;;;21.28;44.59;99780.01;109362;1279;19841;-78
2021/12/25 00:55:24;;;;;;;;;4.00;4.00;;;;;21.28;44.46;99785.61;109350;1280;20673;-78
2021/12/25 00:57:50;;;;;;;;;2.67;2.67;;;;;21.27;44.40;99791.36;109316;1279;21481;-78
2021/12/25 01:00:16;;;;;;;;;4.00;4.00;;;;;21.27;44.43;99791.02;109323;1280;21904;-78
2021/12/25 01:02:42;;;;;;;;;2.00;2.00;;;;;21.28;44.20;99798.52;109319;1280;22369;-78
2021/12/25 01:05:07;;;;;;;;;2.00;2.00;;;;;21.28;44.38;99808.47;109311;1279;19121;-78
2021/12/25 01:07:33;;;;;;;;;3.67;2.00;;;;;21.26;44.20;99815.59;109307;1280;19272;-77
2021/12/25 01:10:02;;;;;;;;;5.00;4.00;;;;;21.27;44.30;99818.56;109339;1280;23260;-79
2021/12/25 01:12:31;;;;;;;;;2.00;2.00;;;;;21.24;44.31;99819.70;109295;1279;22734;-78
2021/12/25 01:15:00;;;;;;;;;2.00;2.00;;;;;21.25;44.18;99828.00;109306;1279;21839;-78
2021/12/25 01:17:57;;;;;;;;;2.00;2.00;;;;;21.25;44.23;99829.47;109365;1280;20321;-78
2021/12/25 01:20:47;;;;;;;;;5.00;4.00;;;;;21.25;44.16;99836.55;109392;1280;19416;-78
2021/12/25 01:29:15;;;;;;;;;3.33;3.33;;;;;21.24;44.08;99859.48;108692;1285;19513;-78
2021/12/25 01:31:47;;;;;;;;;4.00;4.00;;;;;21.24;43.99;99864.47;108747;1286;23043;-78
2021/12/25 01:37:06;;;;;;;;;3.33;2.00;;;;;21.23;43.75;99877.10;108401;1291;22698;-78
2021/12/25 01:39:47;;;;;;;;;2.00;2.00;;;;;21.23;43.91;99881.33;108454;1291;20123;-78
2021/12/25 01:47:49;;;;;;;;;2.00;2.00;;;;;21.22;43.85;99886.74;108438;1290;21179;-78
2021/12/25 01:50:15;;;;;;;;;2.00;2.00;;;;;21.22;43.85;99893.83;108428;1291;21906;-77
2021/12/25 01:52:41;;;;;;;;;2.00;2.00;;;;;21.20;43.66;99891.23;108439;1291;19316;-77
2021/12/25 01:55:07;;;;;;;;;4.00;2.00;;;;;21.20;43.76;99896.38;108446;1291;23291;-78
2021/12/25 01:57:33;;;;;;;;;2.00;2.00;;;;;21.20;43.82;99891.48;108446;1291;22370;-78
2021/12/25 01:59:59;;;;;;;;;1.50;1.50;;;;;21.21;43.71;99896.23;108455;1291;19505;-80
2021/12/25 02:02:24;;;;;;;;;3.00;3.00;;;;;21.20;43.67;99898.99;108411;1290;19957;-75
2021/12/25 02:04:50;;;;;;;;;4.00;4.00;;;;;21.20;43.54;99905.29;108457;1287;20309;-77
2021/12/25 02:07:16;;;;;;;;;2.00;2.00;;;;;21.21;43.77;99907.38;108734;1286;19305;-79
2021/12/25 02:09:42;;;;;;;;;2.00;2.00;;;;;21.18;43.56;99908.66;108746;1285;19583;-78
2021/12/25 02:12:08;;;;;;;;;3.00;3.00;;;;;21.18;43.58;99911.77;108748;1286;20174;-78
2021/12/25 02:14:34;;;;;;;;;2.00;2.00;;;;;21.16;43.65;99910.14;109056;1280;20746;-77
2021/12/25 02:17:12;;;;;;;;;4.00;4.00;;;;;21.17;43.45;99916.95;109311;1279;19514;-78
2021/12/25 02:19:44;;;;;;;;;4.00;4.00;;;;;21.17;43.45;99919.30;109310;1280;21839;-78
2021/12/25 02:22:10;;;;;;;;;3.33;3.33;;;;;21.17;43.46;99922.37;109338;1280;19330;-78
2021/12/25 02:24:36;;;;;;;;;2.00;2.00;;;;;21.16;43.30;99927.46;109295;1280;21031;-78
2021/12/25 02:27:03;;;;;;;;;2.00;2.00;;;;;21.16;43.23;99929.98;109323;1279;21234;-77
2021/12/25 02:29:28;;;;;;;;;2.00;2.00;;;;;21.16;43.29;99935.95;109433;1280;20052;-78
2021/12/25 02:31:54;;;;;;;;;4.00;4.00;;;;;21.15;43.17;99939.70;109308;1280;19508;-78
2021/12/25 02:34:20;;;;;;;;;4.00;4.00;;;;;21.17;43.33;99950.36;109308;1280;23372;-78
2021/12/25 02:36:46;;;;;;;;;2.00;2.00;;;;;21.17;43.08;99950.02;109418;1279;19619;-79
2021/12/25 02:39:12;;;;;;;;;2.00;2.00;;;;;21.17;43.24;99959.13;109341;1280;19354;-78
2021/12/25 02:41:38;;;;;;;;;4.00;4.00;;;;;21.16;43.22;99960.63;109332;1279;20129;-78
2021/12/25 02:44:04;;;;;;;;;2.00;2.00;;;;;21.16;43.29;99965.83;109361;1280;19138;-78
2021/12/25 02:46:29;;;;;;;;;2.00;2.00;;;;;21.15;43.26;99966.11;109327;1279;19944;-77
2021/12/25 02:48:58;;;;;;;;;3.00;3.00;;;;;21.16;43.16;99968.89;109356;1280;20742;-79
2021/12/25 02:51:24;;;;;;;;;2.00;2.00;;;;;21.16;43.24;99973.83;109298;1280;19350;-80
2021/12/25 02:53:49;;;;;;;;;1.00;1.00;;;;;21.15;43.21;99974.95;109271;1280;19957;-80
2021/12/25 02:56:15;;;;;;;;;4.00;4.00;;;;;21.17;43.15;99979.11;109322;1280;20120;-79
2021/12/25 02:58:41;;;;;;;;;4.00;3.00;;;;;21.17;43.19;99981.13;109323;1280;23035;-79
2021/12/25 03:01:07;;;;;;;;;2.00;2.00;;;;;21.15;43.14;99986.78;109344;1279;22642;-79
2021/12/25 03:03:33;;;;;;;;;2.00;2.00;;;;;21.14;43.15;99989.96;109304;1279;23984;-80
2021/12/25 03:05:59;;;;;;;;;2.00;2.00;;;;;21.13;43.08;99993.73;109326;1280;20247;-79
2021/12/25 03:08:24;;;;;;;;;2.00;2.00;;;;;21.14;43.04;99998.21;109385;1280;19325;-76
2021/12/25 03:10:52;;;;;;;;;1.00;1.00;;;;;21.14;43.09;100004.55;109334;1279;20123;-80
2021/12/25 03:13:31;;;;;;;;;2.00;2.00;;;;;21.11;42.84;99993.08;109277;1280;19323;-80
2021/12/25 03:15:57;;;;;;;;;2.00;2.00;;;;;21.13;42.86;100001.23;109330;1279;21116;-77
2021/12/25 03:18:23;;;;;;;;;3.00;3.00;;;;;21.13;43.24;100002.16;109300;1280;20959;-77
2021/12/25 03:20:49;;;;;;;;;2.00;2.00;;;;;21.12;42.86;100003.03;109329;1280;20420;-79
2021/12/25 03:23:15;;;;;;;;;2.00;2.00;;;;;21.10;42.92;100003.30;109401;1280;20450;-80
2021/12/25 03:25:41;;;;;;;;;2.00;2.00;;;;;21.11;42.90;100000.75;109318;1279;20414;-79
2021/12/25 03:28:07;;;;;;;;;2.00;2.00;;;;;21.11;42.92;100005.11;109289;1280;19155;-79
2021/12/25 03:30:36;;;;;;;;;2.00;2.00;;;;;21.11;42.77;100012.15;109300;1279;20009;-78
2021/12/25 03:33:02;;;;;;;;;1.33;1.33;;;;;21.12;42.89;100015.19;109320;1279;23802;-78
2021/12/25 03:35:28;;;;;;;;;2.00;2.00;;;;;21.12;42.83;100024.24;109306;1280;19318;-78
2021/12/25 03:37:54;;;;;;;;;2.00;2.00;;;;;21.11;42.77;100024.02;109324;1280;22616;-78
2021/12/25 03:40:20;;;;;;;;;2.00;2.00;;;;;21.09;42.77;100032.73;109329;1280;21756;-78
2021/12/25 03:42:46;;;;;;;;;2.00;2.00;;;;;21.09;42.73;100029.52;109315;1280;19354;-78
2021/12/25 03:45:12;;;;;;;;;4.00;2.00;;;;;21.08;42.79;100032.46;109274;1280;24197;-78
2021/12/25 03:47:39;;;;;;;;;2.00;2.00;;;;;21.08;42.62;100032.46;109248;1280;20231;-78
2021/12/25 03:58:31;;;;;;;;;2.00;2.00;;;;;21.08;42.57;100049.56;108741;1285;19248;-78
2021/12/25 04:01:02;;;;;;;;;4.00;4.00;;;;;21.09;42.54;100049.27;108756;1285;21875;-78
2021/12/25 04:03:40;;;;;;;;;2.00;2.00;;;;;21.09;42.66;100048.60;108734;1285;23997;-78
2021/12/25 04:06:09;;;;;;;;;2.00;2.00;;;;;21.08;42.57;100050.48;108735;1285;22169;-78
2021/12/25 04:08:43;;;;;;;;;2.00;2.00;;;;;21.07;42.55;100054.00;108758;1285;22267;-77
2021/12/25 04:11:14;;;;;;;;;2.00;2.00;;;;;21.08;42.55;100060.00;108721;1285;22961;-78
2021/12/25 04:13:39;;;;;;;;;4.00;4.00;;;;;21.06;42.64;100056.52;108747;1285;22517;-77
2021/12/25 04:16:05;;;;;;;;;2.00;2.00;;;;;21.04;42.45;100054.14;108750;1285;21520;-78
2021/12/25 04:18:31;;;;;;;;;2.00;2.00;;;;;21.06;42.45;100064.68;108715;1286;20938;-77
2021/12/25 04:20:57;;;;;;;;;2.00;2.00;;;;;21.06;42.49;100067.41;108749;1286;21100;-79
2021/12/25 04:23:26;;;;;;;;;2.00;2.00;;;;;21.05;42.68;100070.88;108786;1285;19913;-78
2021/12/25 04:25:53;;;;;;;;;2.00;2.00;;;;;21.04;42.63;100075.30;108776;1286;21937;-79
2021/12/25 04:28:32;;;;;;;;;4.00;2.00;;;;;21.04;42.61;100088.80;108752;1285;20118;-78
2021/12/25 04:31:10;;;;;;;;;2.00;2.00;;;;;21.03;42.75;100088.71;109230;1279;19544;-78
2021/12/25 04:50:22;;;;;;;;;2.00;2.00;;;;;21.00;42.71;100115.27;109328;1280;21006;-79
2021/12/25 05:03:56;;;;;;;;;2.00;2.00;;;;;21.00;42.29;100131.10;108755;1285;19667;-78
2021/12/25 05:06:23;;;;;;;;;2.67;2.67;;;;;21.00;42.41;100135.59;108716;1285;20388;-78
2021/12/25 05:08:49;;;;;;;;;2.67;2.00;;;;;21.00;42.34;100132.53;108771;1285;20022;-80
2021/12/25 05:11:15;;;;;;;;;2.00;2.00;;;;;20.97;42.34;100140.66;108758;1285;21045;-77
2021/12/25 05:13:42;;;;;;;;;2.00;2.00;;;;;20.98;42.27;100140.04;108763;1285;20109;-78
2021/12/25 05:16:07;;;;;;;;;4.00;4.00;;;;;20.98;42.15;100137.55;108711;1285;20732;-77
2021/12/25 05:18:33;;;;;;;;;2.00;2.00;;;;;20.98;42.17;100135.52;108737;1285;19342;-77
2021/12/25 05:20:59;;;;;;;;;4.00;2.00;;;;;20.97;42.43;100136.97;108725;1285;20119;-78
2021/12/25 05:23:25;;;;;;;;;4.00;4.00;;;;;21.00;42.38;100141.92;108767;1284;22065;-78
2021/12/25 05:25:51;;;;;;;;;4.00;3.33;;;;;21.01;42.22;100143.48;108725;1285;19471;-78
2021/12/25 05:28:24;;;;;;;;;2.00;2.00;;;;;20.99;42.29;100146.27;108712;1285;23961;-78
2021/12/25 05:30:50;;;;;;;;;3.33;3.33;;;;;20.96;42.29;100149.88;108810;1279;23819;-77
2021/12/25 05:33:16;;;;;;;;;1.67;1.67;;;;;20.98;42.30;100146.48;109292;1280;21169;-78
2021/12/25 05:35:42;;;;;;;;;4.00;2.00;;;;;20.98;42.17;100150.95;109349;1280;20696;-77
2021/12/25 05:38:13;;;;;;;;;2.00;2.00;;;;;20.98;42.20;100153.52;109384;1279;19259;-78
2021/12/25 05:40:39;;;;;;;;;2.67;2.67;;;;;20.96;42.24;100156.08;109338;1280;19601;-78
2021/12/25 05:43:05;;;;;;;;;1.50;1.50;;;;;20.97;42.28;100157.42;109339;1280;20558;-78
2021/12/25 05:45:31;;;;;;;;;4.00;4.00;;;;;20.96;42.32;100156.98;109341;1280;19209;-78
2021/12/25 05:47:57;;;;;;;;;2.00;2.00;;;;;20.97;42.12;100157.95;109296;1280;21058;-81
2021/12/25 05:50:23;;;;;;;;;2.00;2.00;;;;;20.95;42.13;100156.74;109299;1279;20928;-80
2021/12/25 05:52:49;;;;;;;;;5.00;4.00;;;;;20.98;42.18;100158.40;109283;1280;19148;-78
2021/12/25 05:55:15;;;;;;;;;2.00;2.00;;;;;20.98;42.12;100159.86;109377;1280;19338;-77
2021/12/25 05:57:41;;;;;;;;;4.00;4.00;;;;;20.97;42.05;100166.85;109317;1279;23055;-78
2021/12/25 06:00:07;;;;;;;;;2.00;2.00;;;;;20.97;42.04;100168.90;109286;1279;22112;-78
2021/12/25 06:02:32;;;;;;;;;3.00;2.00;;;;;20.97;41.93;100171.38;109326;1279;19361;-77
2021/12/25 06:05:00;;;;;;;;;4.00;2.00;;;;;20.97;42.04;100178.84;109271;1280;20868;-78
2021/12/25 06:07:26;;;;;;;;;2.00;2.00;;;;;20.97;42.03;100181.19;109285;1280;22488;-78
2021/12/25 06:09:52;;;;;;;;;4.50;4.00;;;;;20.96;42.03;100181.94;109319;1279;20707;-77
2021/12/25 06:12:18;;;;;;;;;4.00;4.00;;;;;20.94;42.10;100184.89;109289;1280;20295;-79
2021/12/25 06:14:45;;;;;;;;;2.00;2.00;;;;;20.94;41.89;100187.20;109296;1280;19591;-79
2021/12/25 06:17:11;;;;;;;;;4.00;2.00;;;;;20.95;42.05;100188.05;109270;1280;21327;-79
2021/12/25 06:19:36;;;;;;;;;3.00;3.00;;;;;20.96;42.02;100188.30;109289;1279;23298;-79
2021/12/25 06:22:03;;;;;;;;;5.00;5.00;;;;;20.93;41.95;100186.85;109296;1279;19360;-78
2021/12/25 06:24:29;;;;;;;;;4.00;3.00;;;;;20.94;42.07;100187.20;109333;1279;19327;-77
2021/12/25 06:26:56;;;;;;;;;4.00;3.33;;;;;20.95;41.95;100181.53;109369;1280;20668;-79
2021/12/25 06:29:23;;;;;;;;;2.00;2.00;;;;;20.93;41.91;100180.52;109360;1279;22406;-80
2021/12/25 06:31:50;;;;;;;;;4.00;2.00;;;;;20.92;42.12;100185.11;109285;1280;21858;-80
2021/12/25 06:34:15;;;;;;;;;3.33;2.67;;;;;20.92;42.14;100186.79;109354;1279;21910;-80
2021/12/25 06:36:41;;;;;;;;;4.00;4.00;;;;;20.90;42.15;100191.00;109311;1280;19241;-79
2021/12/25 06:39:11;;;;;;;;;2.00;2.00;;;;;20.89;42.06;100194.97;109279;1280;21984;-80
2021/12/25 06:41:37;;;;;;;;;2.00;2.00;;;;;20.91;42.13;100200.35;109352;1280;20396;-80
2021/12/25 06:44:03;;;;;;;;;4.00;4.00;;;;;20.90;42.05;100205.16;109284;1280;19343;-80
2021/12/25 06:46:29;;;;;;;;;4.00;4.00;;;;;20.86;41.95;100196.73;109319;1280;19985;-80
2021/12/25 06:48:55;;;;;;;;;4.00;2.00;;;;;20.90;41.91;100201.19;109320;1279;20137;-80
2021/12/25 06:51:22;;;;;;;;;3.33;3.33;;;;;20.94;42.05;100202.45;109300;1280;23196;-80
2021/12/25 06:53:47;;;;;;;;;5.00;5.00;;;;;20.95;41.99;100204.18;109367;1280;21766;-79
2021/12/25 06:56:13;;;;;;;;;4.00;4.00;;;;;20.96;42.03;100207.13;109383;1279;20045;-80
2021/12/25 06:58:39;;;;;;;;;2.00;2.00;;;;;20.96;42.09;100209.89;109337;1280;19244;-80
2021/12/25 07:01:05;;;;;;;;;4.50;4.00;;;;;20.98;42.18;100210.41;109330;1280;19279;-80
2021/12/25 07:03:31;;;;;;;;;5.00;4.50;;;;;20.97;42.37;100210.40;109315;1279;20266;-80
2021/12/25 07:05:57;;;;;;;;;5.00;5.00;;;;;20.98;42.49;100209.99;109342;1280;20858;-80
2021/12/25 07:08:23;;;;;;;;;4.00;4.00;;;;;21.00;42.52;100214.22;109309;1279;19766;-80
2021/12/25 07:10:48;;;;;;;;;4.00;4.00;;;;;21.05;42.45;100226.65;109304;1279;22666;-80
2021/12/25 07:13:18;;;;;;;;;4.00;4.00;;;;;21.03;42.94;100225.52;109320;1279;19339;-79
2021/12/25 07:15:43;;;;;;;;;4.33;4.33;;;;;21.03;43.37;100230.98;109315;1280;22085;-79
2021/12/25 07:18:09;;;;;;;;;5.50;5.50;;;;;21.03;43.60;100229.88;109345;1279;20718;-79
2021/12/25 07:20:35;;;;;;;;;5.00;5.00;;;;;21.06;43.65;100235.80;109327;1279;19072;-78
2021/12/25 07:23:01;;;;;;;;;5.00;5.00;;;;;21.11;43.62;100241.25;109378;1279;19200;-80
2021/12/25 07:25:27;;;;;;;;;4.50;4.50;;;;;21.17;44.23;100248.00;109322;1280;20140;-79
2021/12/25 07:27:53;;;;;;;;;4.50;4.50;;;;;21.22;44.86;100248.02;109340;1280;20823;-78
2021/12/25 07:30:19;;;;;;;;;4.00;4.00;;;;;21.31;45.28;100249.87;109243;1280;20144;-79
2021/12/25 07:32:45;;;;;;;;;5.00;4.33;;;;;21.33;45.50;100253.08;109245;1279;21833;-78
2021/12/25 07:35:11;;;;;;;;;5.00;5.00;;;;;21.35;45.39;100251.55;109322;1280;19706;-79
2021/12/25 07:37:37;;;;;;;;;7.00;5.00;;;;;21.34;45.32;100253.77;109253;1280;21213;-80
2021/12/25 07:40:04;;;;;;;;;6.00;5.00;;;;;21.33;44.96;100253.20;109251;1280;23424;-81
2021/12/25 07:42:30;;;;;;;;;6.00;5.00;;;;;21.30;44.99;100254.48;109285;1279;19268;-80
2021/12/25 07:45:02;;;;;;;;;5.00;5.00;;;;;21.28;45.05;100258.21;109311;1279;23822;-80
2021/12/25 07:47:28;;;;;;;;;5.67;5.00;;;;;21.27;45.16;100264.38;109339;1280;23033;-80
2021/12/25 07:49:56;;;;;;;;;6.00;5.00;;;;;21.28;45.32;100266.16;109289;1280;19238;-79
2021/12/25 07:52:22;;;;;;;;;5.00;4.67;;;;;21.25;45.29;100264.95;109258;1279;22361;-74
2021/12/25 07:54:48;;;;;;;;;4.00;4.00;;;;;21.15;44.56;100268.35;109331;1280;20767;-77
2021/12/25 07:57:14;;;;;;;;;8.00;5.67;;;;;21.20;44.67;100264.16;109307;1279;19760;-80
2021/12/25 07:59:39;;;;;;;;;6.00;5.00;;;;;21.22;44.89;100265.91;109324;1280;19920;-77
2021/12/25 08:02:05;;;;;;;;;5.00;5.00;;;;;21.22;45.15;100270.91;109277;1279;22199;-79
2021/12/25 08:04:31;;;;;;;;;5.00;5.00;;;;;21.26;44.98;100274.80;109238;1280;23119;-77
2021/12/25 08:06:57;;;;;;;;;8.00;6.00;;;;;21.31;45.40;100276.41;109363;1280;21049;-77
2021/12/25 08:09:29;;;;;;;;;5.00;5.00;;;;;21.32;46.03;100275.92;109319;1280;20231;-78
2021/12/25 08:11:55;;;;;;;;;6.00;6.00;;;;;21.31;46.93;100276.71;109308;1280;19426;-77
2021/12/25 08:14:24;;;;;;;;;5.00;5.00;;;;;21.38;47.49;100279.55;109324;1280;19407;-78
2021/12/25 08:16:50;;;;;;;;;4.67;4.67;;;;;21.43;47.94;100285.20;109287;1280;21179;-76
2021/12/25 08:19:16;;;;;;;;;7.00;6.00;;;;;21.43;48.12;100284.73;109134;1268;256829;-77
2021/12/25 08:21:42;;;;;;;;;5.00;5.00;;;;;21.40;48.57;100279.45;109300;1279;19996;-74
2021/12/25 08:24:08;;;;;;;;;5.00;5.00;;;;;21.45;48.71;100287.02;109178;1280;20065;-75
2021/12/25 08:26:34;;;;;;;;;7.00;6.00;;;;;21.50;48.22;100286.73;109221;1280;24511;-74
2021/12/25 08:29:00;;;;;;;;;6.00;5.00;;;;;21.52;47.45;100287.15;109358;1279;21634;-77
2021/12/25 08:31:25;;;;;;;;;8.00;6.00;;;;;21.52;47.16;100286.30;109347;1280;21347;-76
2021/12/25 08:33:51;;;;;;;;;6.00;5.50;;;;;21.53;46.26;100292.70;109299;1280;23148;-77
2021/12/25 08:36:17;;;;;;;;;8.00;8.00;;;;;21.57;46.73;100291.47;109339;1280;19841;-75
2021/12/25 08:38:43;;;;;;;;;6.00;5.50;;;;;21.59;47.10;100297.04;109318;1280;24653;-74
2021/12/25 08:41:09;;;;;;;;;6.00;6.00;;;;;21.58;46.55;100301.00;109330;1279;23007;-76
2021/12/25 08:43:45;;;;;;;;;10.00;8.00;;;;;21.60;46.08;100304.22;109273;1280;19462;-74
2021/12/25 08:46:15;;;;;;;;;9.00;8.00;;;;;21.62;45.83;100301.76;109166;1279;24114;-75
2021/12/25 08:48:41;;;;;;;;;9.33;9.00;;;;;21.81;44.92;100304.95;109472;1280;19541;-75
2021/12/25 08:51:06;;;;;;;;;9.00;7.00;;;;;21.90;44.77;100309.16;109172;1279;22820;-74
2021/12/25 08:53:33;;;;;;;;;8.50;8.00;;;;;21.82;44.82;100308.98;109287;1279;21760;-74
2021/12/25 08:55:58;;;;;;;;;65.50;49.50;;;;;21.75;44.21;100310.96;109296;1280;21708;-74
2021/12/25 08:58:24;;;;;;;;;96.33;68.67;;;;;21.77;44.18;100313.38;109269;1280;19510;-75
2021/12/25 09:00:55;;;;;;;;;127.33;98.67;;;;;21.77;44.16;100309.15;109304;1279;20662;-75
2021/12/25 09:03:21;;;;;;;;;203.00;151.75;;;;;21.79;44.06;100305.80;109273;1280;19142;-75
2021/12/25 09:05:47;;;;;;;;;261.33;187.00;;;;;21.82;44.11;100308.34;109345;1280;23761;-74
2021/12/25 09:08:12;;;;;;;;;148.67;110.00;;;;;21.84;44.13;100315.14;109292;1280;21471;-74
2021/12/25 09:10:38;;;;;;;;;170.67;134.33;;;;;21.84;43.83;100315.86;109269;1280;19619;-76
2021/12/25 09:13:04;;;;;;;;;166.00;123.00;;;;;21.86;43.50;100318.17;109281;1280;19894;-73
2021/12/25 09:15:30;;;;;;;;;164.00;122.00;;;;;21.85;43.42;100319.17;109288;1279;20029;-76
2021/12/25 09:17:56;;;;;;;;;146.67;112.67;;;;;21.85;43.85;100317.33;109316;1280;20609;-74
2021/12/25 09:20:22;;;;;;;;;128.67;99.67;;;;;21.88;44.62;100317.86;109340;1280;22748;-76
2021/12/25 09:22:48;;;;;;;;;120.00;94.00;;;;;21.94;45.12;100322.29;109320;1279;20026;-74
2021/12/25 09:25:14;;;;;;;;;120.33;91.00;;;;;21.95;45.17;100326.13;109344;1280;22923;-75
2021/12/25 09:27:39;;;;;;;;;119.33;95.67;;;;;21.95;44.63;100326.64;109302;1280;23254;-75
2021/12/25 09:30:05;;;;;;;;;110.33;82.67;;;;;21.95;45.16;100324.98;109312;1279;21874;-75
2021/12/25 09:32:31;;;;;;;;;102.33;77.67;;;;;21.91;45.14;100323.39;109254;1280;19296;-74
2021/12/25 09:35:00;;;;;;;;;103.33;75.67;;;;;21.81;44.92;100316.02;109218;1279;20158;-76
2021/12/25 09:37:26;;;;;;;;;102.67;74.33;;;;;21.80;44.54;100323.28;109253;1279;21827;-76
2021/12/25 09:39:51;;;;;;;;;101.67;69.67;;;;;21.82;44.28;100327.92;109187;1280;19330;-75
2021/12/25 09:42:19;;;;;;;;;94.33;69.33;;;;;21.85;44.47;100331.31;110208;1280;19795;-74
2021/12/25 09:44:45;;;;;;;;;93.00;68.67;;;;;21.89;44.23;100329.29;109401;1280;22507;-75
2021/12/25 09:47:11;;;;;;;;;88.00;66.00;;;;;21.97;43.95;100335.03;109313;1279;19147;-75
2021/12/25 09:49:36;;;;;;;;;86.00;64.00;;;;;22.00;44.15;100334.53;109370;1279;19390;-75
2021/12/25 09:52:02;;;;;;;;;91.00;62.33;;;;;21.99;44.28;100330.55;109324;1279;23177;-75
2021/12/25 09:54:28;;;;;;;;;84.00;62.50;;;;;21.95;44.33;100331.92;109273;1280;19717;-75
2021/12/25 09:56:56;;;;;;;;;82.67;61.33;;;;;21.92;44.51;100326.46;109337;1279;23584;-74
2021/12/25 09:59:22;;;;;;;;;82.33;61.33;;;;;21.89;44.63;100343.27;109292;1279;23912;-75
2021/12/25 10:01:47;;;;;;;;;81.33;58.67;;;;;21.78;44.01;100349.20;109279;1280;19379;-76
2021/12/25 10:04:13;;;;;;;;;82.00;60.67;;;;;21.65;43.68;100345.81;109320;1280;19518;-77
2021/12/25 10:06:39;;;;;;;;;70.00;53.33;;;;;21.62;43.44;100347.29;109285;1280;20111;-74
2021/12/25 10:09:05;;;;;;;;;78.67;57.00;;;;;21.65;43.38;100349.55;109318;1280;19278;-78
2021/12/25 10:11:31;;;;;;;;;81.00;57.33;;;;;21.69;43.61;100345.61;109356;1280;19427;-77
2021/12/25 10:13:57;;;;;;;;;75.33;53.67;;;;;21.69;43.99;100342.33;109281;1280;20684;-77
2021/12/25 10:16:23;;;;;;;;;68.67;53.33;;;;;21.68;43.84;100337.73;109302;1280;20136;-77
2021/12/25 10:18:49;;;;;;;;;72.33;54.00;;;;;21.66;44.11;100338.48;109300;1279;19762;-77
2021/12/25 10:21:15;;;;;;;;;72.33;53.33;;;;;21.64;44.11;100340.09;109290;1280;23132;-78
2021/12/25 10:23:40;;;;;;;;;73.67;55.00;;;;;21.60;44.07;100338.92;109360;1279;19158;-77
2021/12/25 10:26:06;;;;;;;;;74.00;53.67;;;;;21.58;44.28;100340.98;109214;1280;22383;-77
2021/12/25 10:28:32;;;;;;;;;61.33;48.00;;;;;21.57;44.30;100344.17;109204;1279;20147;-75
2021/12/25 10:30:59;;;;;;;;;64.33;50.67;;;;;21.56;44.41;100339.23;109309;1280;23224;-79
2021/12/25 10:33:25;;;;;;;;;74.00;53.50;;;;;21.61;44.55;100343.74;109283;1279;21243;-79
2021/12/25 10:35:51;;;;;;;;;61.50;48.50;;;;;21.65;44.57;100349.63;109292;1279;19983;-79
2021/12/25 10:38:17;;;;;;;;;65.00;48.67;;;;;21.65;45.08;100349.80;109289;1279;19330;-77
2021/12/25 10:40:43;;;;;;;;;66.00;50.00;;;;;21.66;45.32;100349.52;109203;1280;20232;-79
2021/12/25 10:43:10;;;;;;;;;61.67;49.00;;;;;21.64;45.69;100347.70;109203;1280;21178;-79
2021/12/25 10:45:35;;;;;;;;;53.33;44.00;;;;;21.64;45.18;100346.98;109204;1280;19260;-77
2021/12/25 10:48:01;;;;;;;;;50.00;42.00;;;;;21.66;45.62;100349.14;109329;1280;19464;-77
2021/12/25 10:50:27;;;;;;;;;48.50;40.00;;;;;21.56;45.27;100345.59;109309;1280;21976;-77
2021/12/25 10:52:53;;;;;;;;;61.50;44.50;;;;;21.49;45.09;100336.94;109279;1280;20577;-78
2021/12/25 10:55:19;;;;;;;;;48.50;38.00;;;;;21.50;45.16;100339.46;109323;1279;20974;-79
2021/12/25 10:57:45;;;;;;;;;52.00;42.00;;;;;21.52;44.78;100338.42;109310;1279;20346;-79
2021/12/25 11:00:11;;;;;;;;;56.00;40.00;;;;;21.51;44.30;100339.27;109263;1280;19050;-80
2021/12/25 11:02:37;;;;;;;;;52.00;41.50;;;;;21.47;44.42;100337.59;109373;1280;19742;-79
2021/12/25 11:05:03;;;;;;;;;47.00;40.50;;;;;21.45;44.71;100341.38;109341;1280;22322;-79
2021/12/25 11:07:29;;;;;;;;;53.00;41.00;;;;;21.41;44.94;100341.67;109320;1279;19304;-79
2021/12/25 11:09:55;;;;;;;;;46.00;38.00;;;;;21.40;44.89;100340.18;109317;1279;19654;-79
2021/12/25 11:12:20;;;;;;;;;52.00;40.00;;;;;21.38;44.92;100344.73;109255;1279;24535;-79
2021/12/25 11:14:46;;;;;;;;;49.50;39.50;;;;;21.37;44.83;100347.36;109363;1280;19169;-79
2021/12/25 11:17:17;;;;;;;;;43.50;35.50;;;;;21.37;44.69;100345.05;109290;1281;24976;-79
2021/12/25 11:19:44;;;;;;;;;49.00;34.00;;;;;21.37;44.61;100351.39;109376;1280;21869;-79
2021/12/25 11:22:10;;;;;;;;;45.00;36.67;;;;;21.35;44.60;100349.68;109346;1280;20534;-78
2021/12/25 11:24:42;;;;;;;;;40.00;33.00;;;;;21.36;44.68;100350.30;109373;1280;19413;-78
2021/12/25 11:27:08;;;;;;;;;48.33;39.00;;;;;21.35;44.59;100349.82;109377;1280;20455;-79
2021/12/25 11:29:34;;;;;;;;;46.50;37.00;;;;;21.34;44.72;100346.48;109350;1280;20561;-78
2021/12/25 11:32:00;;;;;;;;;50.00;38.00;;;;;21.33;44.61;100344.21;109334;1280;19479;-78
2021/12/25 11:34:26;;;;;;;;;41.00;33.00;;;;;21.33;44.60;100344.24;109328;1280;20218;-78
2021/12/25 11:36:51;;;;;;;;;44.00;36.50;;;;;21.32;44.59;100343.48;109357;1280;19270;-78
2021/12/25 11:39:17;;;;;;;;;40.00;33.00;;;;;21.31;44.57;100343.77;109289;1279;19401;-78
2021/12/25 11:41:43;;;;;;;;;40.00;33.50;;;;;21.31;44.39;100342.55;109386;1280;23437;-78
2021/12/25 11:44:09;;;;;;;;;42.00;35.00;;;;;21.30;44.56;100341.71;109339;1279;19574;-80
2021/12/25 11:46:35;;;;;;;;;40.00;33.00;;;;;21.30;44.42;100339.15;109215;1280;22638;-78
2021/12/25 11:49:01;;;;;;;;;37.67;29.33;;;;;21.31;44.29;100342.88;109341;1279;20479;-80
2021/12/25 11:51:29;;;;;;;;;44.00;34.00;;;;;21.31;44.22;100347.80;109339;1280;19177;-79
2021/12/25 11:54:05;;;;;;;;;33.67;30.00;;;;;21.28;44.23;100344.23;109307;1279;20671;-78
2021/12/25 11:56:36;;;;;;;;;36.67;31.33;;;;;21.26;44.33;100338.59;109346;1280;21408;-77
2021/12/25 11:59:02;;;;;;;;;35.67;28.00;;;;;21.28;44.28;100342.55;109278;1280;19495;-79
2021/12/25 12:01:28;;;;;;;;;29.33;28.33;;;;;21.27;44.17;100344.85;109370;1280;21197;-78
2021/12/25 12:03:56;;;;;;;;;37.00;31.00;;;;;21.26;44.04;100344.41;109316;1280;20127;-78